sensor_id;sensor_type;location;lat;lon;timestamp;temperature;humidity
68387;DHT22;55338;43.062;25.624;2022-11-20T00:01:18;18.30;99.90
68387;DHT22;55338;43.062;25.624;2022-11-20T00:03:44;18.40;99.90
68387;DHT22;55338;43.062;25.624;2022-11-20T00:06:12;18.40;99.90
68387;DHT22;55338;43.062;25.624;2022-11-20T00:08:38;18.30;99.90
68387;DHT22;55338;43.062;25.624;2022-11-20T00:11:12;18.40;99.90
68387;DHT22;55338;43.062;25.624;2022-11-20T00:13:39;18.40;99.90
68387;DHT22;55338;43.062;25.624;2022-11-20T00:16:06;18.40;99.90
68387;DHT22;55338;43.062;25.624;2022-11-20T00:18:33;18.40;99.90
68387;DHT22;55338;43.062;25.624;2022-11-20T00:21:04;18.50;99.90
68387;DHT22;55338;43.062;25.624;2022-11-20T00:23:30;18.50;99.90
68387;DHT22;55338;43.062;25.624;2022-11-20T00:25:56;18.60;99.90
68387;DHT22;55338;43.062;25.624;2022-11-20T00:28:22;18.60;99.90
68387;DHT22;55338;43.062;25.624;2022-11-20T00:30:48;18.70;99.90
68387;DHT22;55338;43.062;25.624;2022-11-20T00:33:14;18.80;99.90
68387;DHT22;55338;43.062;25.624;2022-11-20T00:35:39;18.80;99.70
68387;DHT22;55338;43.062;25.624;2022-11-20T00:38:05;18.80;99.40
68387;DHT22;55338;43.062;25.624;2022-11-20T00:40:31;18.80;99.00
68387;DHT22;55338;43.062;25.624;2022-11-20T00:42:56;18.90;98.80
68387;DHT22;55338;43.062;25.624;2022-11-20T00:45:22;19.10;98.50
68387;DHT22;55338;43.062;25.624;2022-11-20T00:47:48;19.10;97.70
68387;DHT22;55338;43.062;25.624;2022-11-20T00:50:14;19.00;98.00
68387;DHT22;55338;43.062;25.624;2022-11-20T00:52:39;19.10;98.10
68387;DHT22;55338;43.062;25.624;2022-11-20T00:55:05;19.10;97.60
68387;DHT22;55338;43.062;25.624;2022-11-20T00:57:31;19.20;97.40
68387;DHT22;55338;43.062;25.624;2022-11-20T00:59:57;19.10;97.70
68387;DHT22;55338;43.062;25.624;2022-11-20T01:02:23;19.10;97.60
68387;DHT22;55338;43.062;25.624;2022-11-20T01:04:48;19.10;97.80
68387;DHT22;55338;43.062;25.624;2022-11-20T01:07:14;19.10;97.80
68387;DHT22;55338;43.062;25.624;2022-11-20T01:09:40;19.20;97.40
68387;DHT22;55338;43.062;25.624;2022-11-20T01:12:06;19.20;97.00
68387;DHT22;55338;43.062;25.624;2022-11-20T01:14:32;19.30;97.00
68387;DHT22;55338;43.062;25.624;2022-11-20T01:16:57;19.30;96.50
68387;DHT22;55338;43.062;25.624;2022-11-20T01:19:23;19.40;96.00
68387;DHT22;55338;43.062;25.624;2022-11-20T01:21:51;19.50;95.70
68387;DHT22;55338;43.062;25.624;2022-11-20T01:24:19;19.50;95.60
68387;DHT22;55338;43.062;25.624;2022-11-20T01:26:48;19.50;95.50
68387;DHT22;55338;43.062;25.624;2022-11-20T01:29:21;19.40;95.50
68387;DHT22;55338;43.062;25.624;2022-11-20T01:31:47;19.40;95.70
68387;DHT22;55338;43.062;25.624;2022-11-20T01:34:16;19.40;95.70
68387;DHT22;55338;43.062;25.624;2022-11-20T01:36:43;19.40;95.70
68387;DHT22;55338;43.062;25.624;2022-11-20T01:39:13;19.40;96.20
68387;DHT22;55338;43.062;25.624;2022-11-20T01:41:39;19.40;96.20
68387;DHT22;55338;43.062;25.624;2022-11-20T01:44:51;19.30;96.30
68387;DHT22;55338;43.062;25.624;2022-11-20T01:47:25;19.30;96.20
68387;DHT22;55338;43.062;25.624;2022-11-20T01:50:04;19.40;96.10
68387;DHT22;55338;43.062;25.624;2022-11-20T01:52:39;19.40;95.80
68387;DHT22;55338;43.062;25.624;2022-11-20T01:55:13;19.40;95.90
68387;DHT22;55338;43.062;25.624;2022-11-20T01:57:40;19.40;95.80
68387;DHT22;55338;43.062;25.624;2022-11-20T02:00:09;19.40;95.50
68387;DHT22;55338;43.062;25.624;2022-11-20T02:02:36;19.40;95.60
68387;DHT22;55338;43.062;25.624;2022-11-20T02:05:28;19.40;95.60
68387;DHT22;55338;43.062;25.624;2022-11-20T02:07:57;19.40;95.50
68387;DHT22;55338;43.062;25.624;2022-11-20T02:10:25;19.30;95.90
68387;DHT22;55338;43.062;25.624;2022-11-20T02:12:52;19.30;96.00
68387;DHT22;55338;43.062;25.624;2022-11-20T02:15:36;19.20;96.10
68387;DHT22;55338;43.062;25.624;2022-11-20T02:18:02;19.20;96.20
68387;DHT22;55338;43.062;25.624;2022-11-20T02:20:28;19.20;96.30
68387;DHT22;55338;43.062;25.624;2022-11-20T02:22:56;19.20;96.30
68387;DHT22;55338;43.062;25.624;2022-11-20T02:25:24;19.20;96.10
68387;DHT22;55338;43.062;25.624;2022-11-20T02:27:51;19.20;95.80
68387;DHT22;55338;43.062;25.624;2022-11-20T02:30:17;19.20;95.70
68387;DHT22;55338;43.062;25.624;2022-11-20T02:32:43;19.20;95.60
68387;DHT22;55338;43.062;25.624;2022-11-20T02:38:00;19.30;95.50
68387;DHT22;55338;43.062;25.624;2022-11-20T02:40:26;19.20;95.20
68387;DHT22;55338;43.062;25.624;2022-11-20T02:42:53;19.20;95.50
68387;DHT22;55338;43.062;25.624;2022-11-20T02:45:19;19.20;95.50
68387;DHT22;55338;43.062;25.624;2022-11-20T02:47:44;19.20;95.30
68387;DHT22;55338;43.062;25.624;2022-11-20T02:50:10;19.30;95.30
68387;DHT22;55338;43.062;25.624;2022-11-20T02:52:36;19.30;94.90
68387;DHT22;55338;43.062;25.624;2022-11-20T02:55:02;19.30;94.90
68387;DHT22;55338;43.062;25.624;2022-11-20T02:57:28;19.30;94.80
68387;DHT22;55338;43.062;25.624;2022-11-20T02:59:54;19.30;94.60
68387;DHT22;55338;43.062;25.624;2022-11-20T03:02:20;19.30;94.70
68387;DHT22;55338;43.062;25.624;2022-11-20T03:04:46;19.40;94.40
68387;DHT22;55338;43.062;25.624;2022-11-20T03:07:12;19.40;94.50
68387;DHT22;55338;43.062;25.624;2022-11-20T03:09:37;19.30;94.90
68387;DHT22;55338;43.062;25.624;2022-11-20T03:12:03;19.30;94.80
68387;DHT22;55338;43.062;25.624;2022-11-20T03:14:29;19.20;95.00
68387;DHT22;55338;43.062;25.624;2022-11-20T03:16:55;19.20;94.90
68387;DHT22;55338;43.062;25.624;2022-11-20T03:19:21;19.20;94.90
68387;DHT22;55338;43.062;25.624;2022-11-20T03:21:47;19.20;94.70
68387;DHT22;55338;43.062;25.624;2022-11-20T03:24:13;19.20;94.70
68387;DHT22;55338;43.062;25.624;2022-11-20T03:26:40;19.20;94.70
68387;DHT22;55338;43.062;25.624;2022-11-20T03:29:06;19.20;94.40
68387;DHT22;55338;43.062;25.624;2022-11-20T03:31:37;19.20;94.50
68387;DHT22;55338;43.062;25.624;2022-11-20T03:34:04;19.20;94.50
68387;DHT22;55338;43.062;25.624;2022-11-20T03:36:30;19.30;94.60
68387;DHT22;55338;43.062;25.624;2022-11-20T03:38:57;19.20;94.50
68387;DHT22;55338;43.062;25.624;2022-11-20T03:41:25;19.20;94.70
68387;DHT22;55338;43.062;25.624;2022-11-20T03:43:56;19.20;94.90
68387;DHT22;55338;43.062;25.624;2022-11-20T03:46:22;19.20;94.90
68387;DHT22;55338;43.062;25.624;2022-11-20T03:48:49;19.20;94.70
68387;DHT22;55338;43.062;25.624;2022-11-20T03:51:20;19.20;94.70
68387;DHT22;55338;43.062;25.624;2022-11-20T03:53:47;19.20;94.70
68387;DHT22;55338;43.062;25.624;2022-11-20T03:56:14;19.20;94.30
68387;DHT22;55338;43.062;25.624;2022-11-20T03:58:41;19.20;94.30
68387;DHT22;55338;43.062;25.624;2022-11-20T04:03:41;19.30;94.20
68387;DHT22;55338;43.062;25.624;2022-11-20T04:06:12;19.30;94.20
68387;DHT22;55338;43.062;25.624;2022-11-20T04:08:39;19.30;94.20
68387;DHT22;55338;43.062;25.624;2022-11-20T04:11:16;19.20;94.10
68387;DHT22;55338;43.062;25.624;2022-11-20T04:13:47;19.30;93.90
68387;DHT22;55338;43.062;25.624;2022-11-20T04:16:14;19.30;94.10
68387;DHT22;55338;43.062;25.624;2022-11-20T04:18:40;19.20;93.80
68387;DHT22;55338;43.062;25.624;2022-11-20T04:21:06;19.20;93.50
68387;DHT22;55338;43.062;25.624;2022-11-20T04:23:32;19.30;93.40
68387;DHT22;55338;43.062;25.624;2022-11-20T04:26:07;19.40;92.60
68387;DHT22;55338;43.062;25.624;2022-11-20T04:28:33;19.50;92.40
68387;DHT22;55338;43.062;25.624;2022-11-20T04:31:04;19.60;92.20
68387;DHT22;55338;43.062;25.624;2022-11-20T04:33:30;19.50;92.30
68387;DHT22;55338;43.062;25.624;2022-11-20T04:36:01;19.50;92.20
68387;DHT22;55338;43.062;25.624;2022-11-20T04:38:27;19.40;92.30
68387;DHT22;55338;43.062;25.624;2022-11-20T04:40:57;19.30;92.50
68387;DHT22;55338;43.062;25.624;2022-11-20T04:43:23;19.30;92.90
68387;DHT22;55338;43.062;25.624;2022-11-20T04:45:53;19.20;93.10
68387;DHT22;55338;43.062;25.624;2022-11-20T04:48:19;19.20;93.20
68387;DHT22;55338;43.062;25.624;2022-11-20T04:50:45;19.20;93.30
68387;DHT22;55338;43.062;25.624;2022-11-20T04:53:10;19.10;93.10
68387;DHT22;55338;43.062;25.624;2022-11-20T04:55:36;19.10;93.60
68387;DHT22;55338;43.062;25.624;2022-11-20T04:58:02;19.10;93.70
68387;DHT22;55338;43.062;25.624;2022-11-20T05:00:27;19.00;93.60
68387;DHT22;55338;43.062;25.624;2022-11-20T05:02:53;19.00;93.70
68387;DHT22;55338;43.062;25.624;2022-11-20T05:05:19;19.00;93.80
68387;DHT22;55338;43.062;25.624;2022-11-20T05:07:45;19.00;93.70
68387;DHT22;55338;43.062;25.624;2022-11-20T05:10:10;19.00;93.80
68387;DHT22;55338;43.062;25.624;2022-11-20T05:12:36;19.00;93.60
68387;DHT22;55338;43.062;25.624;2022-11-20T05:15:02;19.00;93.40
68387;DHT22;55338;43.062;25.624;2022-11-20T05:17:28;19.10;93.30
68387;DHT22;55338;43.062;25.624;2022-11-20T05:19:53;19.10;93.00
68387;DHT22;55338;43.062;25.624;2022-11-20T05:22:19;19.00;93.00
68387;DHT22;55338;43.062;25.624;2022-11-20T05:24:45;19.00;93.20
68387;DHT22;55338;43.062;25.624;2022-11-20T05:27:10;19.00;93.00
68387;DHT22;55338;43.062;25.624;2022-11-20T05:29:36;19.00;93.00
68387;DHT22;55338;43.062;25.624;2022-11-20T05:32:02;19.00;93.10
68387;DHT22;55338;43.062;25.624;2022-11-20T05:34:28;19.10;92.80
68387;DHT22;55338;43.062;25.624;2022-11-20T05:36:53;19.10;93.10
68387;DHT22;55338;43.062;25.624;2022-11-20T05:39:19;19.10;92.70
68387;DHT22;55338;43.062;25.624;2022-11-20T05:41:45;19.10;92.30
68387;DHT22;55338;43.062;25.624;2022-11-20T05:44:11;19.20;91.70
68387;DHT22;55338;43.062;25.624;2022-11-20T05:46:37;19.30;91.70
68387;DHT22;55338;43.062;25.624;2022-11-20T05:49:02;19.30;91.40
68387;DHT22;55338;43.062;25.624;2022-11-20T05:51:28;19.40;91.00
68387;DHT22;55338;43.062;25.624;2022-11-20T05:53:56;19.40;90.80
68387;DHT22;55338;43.062;25.624;2022-11-20T05:56:22;19.40;90.90
68387;DHT22;55338;43.062;25.624;2022-11-20T05:58:49;19.40;90.70
68387;DHT22;55338;43.062;25.624;2022-11-20T06:01:20;19.40;90.50
68387;DHT22;55338;43.062;25.624;2022-11-20T06:03:47;19.50;90.40
68387;DHT22;55338;43.062;25.624;2022-11-20T06:06:15;19.40;90.20
68387;DHT22;55338;43.062;25.624;2022-11-20T06:08:41;19.40;90.40
68387;DHT22;55338;43.062;25.624;2022-11-20T06:11:08;19.40;90.40
68387;DHT22;55338;43.062;25.624;2022-11-20T06:13:35;19.40;90.70
68387;DHT22;55338;43.062;25.624;2022-11-20T06:16:01;19.30;90.50
68387;DHT22;55338;43.062;25.624;2022-11-20T06:18:28;19.30;90.90
68387;DHT22;55338;43.062;25.624;2022-11-20T06:21:21;19.30;91.20
68387;DHT22;55338;43.062;25.624;2022-11-20T06:23:48;19.20;91.10
68387;DHT22;55338;43.062;25.624;2022-11-20T06:26:19;19.20;91.00
68387;DHT22;55338;43.062;25.624;2022-11-20T06:28:45;19.20;90.90
68387;DHT22;55338;43.062;25.624;2022-11-20T06:31:13;19.30;91.10
68387;DHT22;55338;43.062;25.624;2022-11-20T06:33:40;19.30;91.40
68387;DHT22;55338;43.062;25.624;2022-11-20T06:36:05;19.40;90.50
68387;DHT22;55338;43.062;25.624;2022-11-20T06:38:31;19.40;88.40
68387;DHT22;55338;43.062;25.624;2022-11-20T06:40:57;19.20;87.20
68387;DHT22;55338;43.062;25.624;2022-11-20T06:43:23;19.00;86.80
68387;DHT22;55338;43.062;25.624;2022-11-20T06:45:56;18.90;85.50
68387;DHT22;55338;43.062;25.624;2022-11-20T06:48:23;18.50;85.70
68387;DHT22;55338;43.062;25.624;2022-11-20T06:50:49;18.10;86.40
68387;DHT22;55338;43.062;25.624;2022-11-20T06:53:15;18.00;85.60
68387;DHT22;55338;43.062;25.624;2022-11-20T06:55:48;17.80;86.40
68387;DHT22;55338;43.062;25.624;2022-11-20T06:58:15;17.80;85.90
68387;DHT22;55338;43.062;25.624;2022-11-20T07:00:41;17.80;85.80
68387;DHT22;55338;43.062;25.624;2022-11-20T07:03:08;17.70;85.80
68387;DHT22;55338;43.062;25.624;2022-11-20T07:05:35;17.50;86.40
68387;DHT22;55338;43.062;25.624;2022-11-20T07:08:01;17.10;88.10
68387;DHT22;55338;43.062;25.624;2022-11-20T07:10:27;16.90;88.20
68387;DHT22;55338;43.062;25.624;2022-11-20T07:12:54;16.80;89.00
68387;DHT22;55338;43.062;25.624;2022-11-20T07:15:21;16.40;90.20
68387;DHT22;55338;43.062;25.624;2022-11-20T07:17:48;15.90;91.80
68387;DHT22;55338;43.062;25.624;2022-11-20T07:20:14;15.70;93.00
68387;DHT22;55338;43.062;25.624;2022-11-20T07:22:40;15.50;94.30
68387;DHT22;55338;43.062;25.624;2022-11-20T07:25:07;15.10;94.80
68387;DHT22;55338;43.062;25.624;2022-11-20T07:27:33;14.70;97.10
68387;DHT22;55338;43.062;25.624;2022-11-20T07:29:58;14.50;98.40
68387;DHT22;55338;43.062;25.624;2022-11-20T07:32:24;14.30;99.30
68387;DHT22;55338;43.062;25.624;2022-11-20T07:34:50;14.00;99.90
68387;DHT22;55338;43.062;25.624;2022-11-20T07:37:16;13.80;99.90
68387;DHT22;55338;43.062;25.624;2022-11-20T07:39:42;13.60;99.90
68387;DHT22;55338;43.062;25.624;2022-11-20T07:42:08;13.50;99.90
68387;DHT22;55338;43.062;25.624;2022-11-20T07:44:34;13.50;99.90
68387;DHT22;55338;43.062;25.624;2022-11-20T07:47:00;13.40;99.90
68387;DHT22;55338;43.062;25.624;2022-11-20T07:49:26;13.30;99.90
68387;DHT22;55338;43.062;25.624;2022-11-20T07:51:52;13.30;99.90
68387;DHT22;55338;43.062;25.624;2022-11-20T07:54:22;13.10;99.90
68387;DHT22;55338;43.062;25.624;2022-11-20T07:56:48;13.00;99.90
68387;DHT22;55338;43.062;25.624;2022-11-20T07:59:14;13.00;99.90
68387;DHT22;55338;43.062;25.624;2022-11-20T08:01:41;13.00;99.90
68387;DHT22;55338;43.062;25.624;2022-11-20T08:04:08;13.00;99.90
68387;DHT22;55338;43.062;25.624;2022-11-20T08:06:35;13.00;99.90
68387;DHT22;55338;43.062;25.624;2022-11-20T08:09:01;12.90;99.90
68387;DHT22;55338;43.062;25.624;2022-11-20T08:11:27;13.00;99.90
68387;DHT22;55338;43.062;25.624;2022-11-20T08:14:11;12.90;99.90
68387;DHT22;55338;43.062;25.624;2022-11-20T08:16:47;12.90;99.90
68387;DHT22;55338;43.062;25.624;2022-11-20T08:19:15;12.80;99.90
68387;DHT22;55338;43.062;25.624;2022-11-20T08:21:42;12.80;99.90
68387;DHT22;55338;43.062;25.624;2022-11-20T08:24:08;12.70;99.90
68387;DHT22;55338;43.062;25.624;2022-11-20T08:26:35;12.70;99.90
68387;DHT22;55338;43.062;25.624;2022-11-20T08:29:03;12.70;99.90
68387;DHT22;55338;43.062;25.624;2022-11-20T08:31:29;12.60;99.90
68387;DHT22;55338;43.062;25.624;2022-11-20T08:33:56;12.60;99.90
68387;DHT22;55338;43.062;25.624;2022-11-20T08:36:22;12.60;99.90
68387;DHT22;55338;43.062;25.624;2022-11-20T08:38:49;12.40;99.90
68387;DHT22;55338;43.062;25.624;2022-11-20T08:41:16;12.40;99.90
68387;DHT22;55338;43.062;25.624;2022-11-20T08:44:01;12.50;99.90
68387;DHT22;55338;43.062;25.624;2022-11-20T08:46:31;12.50;99.90
68387;DHT22;55338;43.062;25.624;2022-11-20T08:48:59;12.50;99.90
68387;DHT22;55338;43.062;25.624;2022-11-20T08:51:25;12.60;99.90
68387;DHT22;55338;43.062;25.624;2022-11-20T08:53:51;12.50;99.90
68387;DHT22;55338;43.062;25.624;2022-11-20T08:56:17;12.60;99.90
68387;DHT22;55338;43.062;25.624;2022-11-20T08:58:43;12.60;99.90
68387;DHT22;55338;43.062;25.624;2022-11-20T09:01:09;12.60;99.90
68387;DHT22;55338;43.062;25.624;2022-11-20T09:03:35;12.60;99.90
68387;DHT22;55338;43.062;25.624;2022-11-20T09:06:03;12.60;99.90
68387;DHT22;55338;43.062;25.624;2022-11-20T09:08:29;12.50;99.90
68387;DHT22;55338;43.062;25.624;2022-11-20T09:10:56;12.60;99.90
68387;DHT22;55338;43.062;25.624;2022-11-20T09:13:24;12.60;99.90
68387;DHT22;55338;43.062;25.624;2022-11-20T09:16:02;12.60;99.90
68387;DHT22;55338;43.062;25.624;2022-11-20T09:18:28;12.60;99.90
68387;DHT22;55338;43.062;25.624;2022-11-20T09:20:58;12.60;99.90
68387;DHT22;55338;43.062;25.624;2022-11-20T09:23:25;12.60;99.90
68387;DHT22;55338;43.062;25.624;2022-11-20T09:25:51;12.70;99.90
68387;DHT22;55338;43.062;25.624;2022-11-20T09:28:18;12.70;99.90
68387;DHT22;55338;43.062;25.624;2022-11-20T09:30:44;12.70;99.90
68387;DHT22;55338;43.062;25.624;2022-11-20T09:33:10;12.70;99.90
68387;DHT22;55338;43.062;25.624;2022-11-20T09:35:35;12.80;99.90
68387;DHT22;55338;43.062;25.624;2022-11-20T09:38:08;12.70;99.90
68387;DHT22;55338;43.062;25.624;2022-11-20T09:40:35;12.70;99.90
68387;DHT22;55338;43.062;25.624;2022-11-20T09:43:17;12.70;99.90
68387;DHT22;55338;43.062;25.624;2022-11-20T09:48:26;12.80;99.90
68387;DHT22;55338;43.062;25.624;2022-11-20T09:56:27;12.80;99.90
68387;DHT22;55338;43.062;25.624;2022-11-20T09:59:04;12.90;99.90
68387;DHT22;55338;43.062;25.624;2022-11-20T10:01:33;13.00;99.90
68387;DHT22;55338;43.062;25.624;2022-11-20T10:04:24;13.00;99.90
68387;DHT22;55338;43.062;25.624;2022-11-20T10:09:54;13.10;99.90
68387;DHT22;55338;43.062;25.624;2022-11-20T10:31:37;13.00;99.90
68387;DHT22;55338;43.062;25.624;2022-11-20T10:34:07;13.00;99.90
68387;DHT22;55338;43.062;25.624;2022-11-20T10:36:49;13.00;99.90
68387;DHT22;55338;43.062;25.624;2022-11-20T10:42:22;13.10;99.90
68387;DHT22;55338;43.062;25.624;2022-11-20T10:44:53;13.10;99.90
68387;DHT22;55338;43.062;25.624;2022-11-20T10:47:28;13.00;99.90
68387;DHT22;55338;43.062;25.624;2022-11-20T10:50:00;12.90;99.90
68387;DHT22;55338;43.062;25.624;2022-11-20T10:58:01;13.10;99.90
68387;DHT22;55338;43.062;25.624;2022-11-20T11:00:32;13.20;99.90
68387;DHT22;55338;43.062;25.624;2022-11-20T11:02:58;13.30;99.90
68387;DHT22;55338;43.062;25.624;2022-11-20T11:05:38;13.40;99.90
68387;DHT22;55338;43.062;25.624;2022-11-20T11:08:17;13.50;99.90
68387;DHT22;55338;43.062;25.624;2022-11-20T11:13:44;13.70;99.90
68387;DHT22;55338;43.062;25.624;2022-11-20T11:16:24;13.80;99.90
68387;DHT22;55338;43.062;25.624;2022-11-20T11:18:51;13.90;99.90
68387;DHT22;55338;43.062;25.624;2022-11-20T11:21:24;13.90;99.90
68387;DHT22;55338;43.062;25.624;2022-11-20T11:24:03;13.90;99.90
68387;DHT22;55338;43.062;25.624;2022-11-20T11:26:29;13.80;99.90
68387;DHT22;55338;43.062;25.624;2022-11-20T11:28:56;13.90;99.90
68387;DHT22;55338;43.062;25.624;2022-11-20T11:31:32;13.90;99.90
68387;DHT22;55338;43.062;25.624;2022-11-20T11:34:06;14.00;99.90
68387;DHT22;55338;43.062;25.624;2022-11-20T11:36:34;14.10;99.90
68387;DHT22;55338;43.062;25.624;2022-11-20T11:39:02;14.10;99.90
68387;DHT22;55338;43.062;25.624;2022-11-20T11:41:31;14.10;99.90
68387;DHT22;55338;43.062;25.624;2022-11-20T11:44:04;14.20;99.90
68387;DHT22;55338;43.062;25.624;2022-11-20T11:46:58;14.20;99.90
68387;DHT22;55338;43.062;25.624;2022-11-20T11:49:24;14.10;99.90
68387;DHT22;55338;43.062;25.624;2022-11-20T11:52:25;14.00;99.90
68387;DHT22;55338;43.062;25.624;2022-11-20T11:54:55;14.00;99.90
68387;DHT22;55338;43.062;25.624;2022-11-20T12:00:09;14.00;99.90
68387;DHT22;55338;43.062;25.624;2022-11-20T12:05:26;14.00;99.90
68387;DHT22;55338;43.062;25.624;2022-11-20T12:08:15;14.00;99.90
68387;DHT22;55338;43.062;25.624;2022-11-20T12:16:38;14.00;99.90
68387;DHT22;55338;43.062;25.624;2022-11-20T12:19:10;14.00;99.90
68387;DHT22;55338;43.062;25.624;2022-11-20T12:25:01;13.80;99.90
68387;DHT22;55338;43.062;25.624;2022-11-20T12:27:54;13.80;99.90
68387;DHT22;55338;43.062;25.624;2022-11-20T12:30:23;13.70;99.90
68387;DHT22;55338;43.062;25.624;2022-11-20T12:55:56;13.40;99.90
68387;DHT22;55338;43.062;25.624;2022-11-20T13:06:50;13.00;99.90
68387;DHT22;55338;43.062;25.624;2022-11-20T13:09:19;13.00;99.90
68387;DHT22;55338;43.062;25.624;2022-11-20T13:14:40;13.00;99.90
68387;DHT22;55338;43.062;25.624;2022-11-20T13:17:31;13.00;99.90
68387;DHT22;55338;43.062;25.624;2022-11-20T13:20:00;13.00;99.90
68387;DHT22;55338;43.062;25.624;2022-11-20T13:27:48;12.90;99.90
68387;DHT22;55338;43.062;25.624;2022-11-20T13:30:20;12.90;99.90
68387;DHT22;55338;43.062;25.624;2022-11-20T13:35:36;12.90;99.90
68387;DHT22;55338;43.062;25.624;2022-11-20T13:38:11;12.90;99.90
68387;DHT22;55338;43.062;25.624;2022-11-20T13:40:50;12.80;99.90
68387;DHT22;55338;43.062;25.624;2022-11-20T13:45:56;12.80;99.90
68387;DHT22;55338;43.062;25.624;2022-11-20T13:48:25;12.80;99.90
68387;DHT22;55338;43.062;25.624;2022-11-20T14:01:38;12.60;99.90
68387;DHT22;55338;43.062;25.624;2022-11-20T14:04:08;12.60;99.90
68387;DHT22;55338;43.062;25.624;2022-11-20T14:06:41;12.50;99.90
68387;DHT22;55338;43.062;25.624;2022-11-20T14:11:51;12.60;99.90
68387;DHT22;55338;43.062;25.624;2022-11-20T14:14:19;12.60;99.90
68387;DHT22;55338;43.062;25.624;2022-11-20T14:16:47;12.60;99.90
68387;DHT22;55338;43.062;25.624;2022-11-20T14:21:50;12.60;99.90
68387;DHT22;55338;43.062;25.624;2022-11-20T14:24:24;12.60;99.90
68387;DHT22;55338;43.062;25.624;2022-11-20T14:26:51;12.60;99.90
68387;DHT22;55338;43.062;25.624;2022-11-20T14:29:19;12.60;99.90
68387;DHT22;55338;43.062;25.624;2022-11-20T14:31:46;12.60;99.90
68387;DHT22;55338;43.062;25.624;2022-11-20T14:34:20;12.60;99.90
68387;DHT22;55338;43.062;25.624;2022-11-20T14:36:48;12.60;99.90
68387;DHT22;55338;43.062;25.624;2022-11-20T14:39:21;12.50;99.90
68387;DHT22;55338;43.062;25.624;2022-11-20T14:41:51;12.50;99.90
68387;DHT22;55338;43.062;25.624;2022-11-20T14:44:18;12.40;99.90
68387;DHT22;55338;43.062;25.624;2022-11-20T14:46:45;12.40;99.90
68387;DHT22;55338;43.062;25.624;2022-11-20T14:49:11;12.40;99.90
68387;DHT22;55338;43.062;25.624;2022-11-20T14:51:40;12.40;99.90
68387;DHT22;55338;43.062;25.624;2022-11-20T14:54:11;12.30;99.90
68387;DHT22;55338;43.062;25.624;2022-11-20T14:56:38;12.30;99.90
68387;DHT22;55338;43.062;25.624;2022-11-20T14:59:04;12.20;99.90
68387;DHT22;55338;43.062;25.624;2022-11-20T15:01:31;12.20;99.90
68387;DHT22;55338;43.062;25.624;2022-11-20T15:04:06;12.10;99.90
68387;DHT22;55338;43.062;25.624;2022-11-20T15:06:32;12.20;99.90
68387;DHT22;55338;43.062;25.624;2022-11-20T15:08:58;12.20;99.90
68387;DHT22;55338;43.062;25.624;2022-11-20T15:11:29;12.20;99.90
68387;DHT22;55338;43.062;25.624;2022-11-20T15:13:56;12.20;99.90
68387;DHT22;55338;43.062;25.624;2022-11-20T15:16:23;12.10;99.90
68387;DHT22;55338;43.062;25.624;2022-11-20T15:18:50;12.10;99.90
68387;DHT22;55338;43.062;25.624;2022-11-20T15:21:19;12.10;99.90
68387;DHT22;55338;43.062;25.624;2022-11-20T15:23:45;12.10;99.90
68387;DHT22;55338;43.062;25.624;2022-11-20T15:26:12;12.00;99.90
68387;DHT22;55338;43.062;25.624;2022-11-20T15:28:45;12.00;99.90
68387;DHT22;55338;43.062;25.624;2022-11-20T15:31:15;12.00;99.90
68387;DHT22;55338;43.062;25.624;2022-11-20T15:33:41;12.00;99.90
68387;DHT22;55338;43.062;25.624;2022-11-20T15:36:08;12.00;99.90
68387;DHT22;55338;43.062;25.624;2022-11-20T15:38:34;12.00;99.90
68387;DHT22;55338;43.062;25.624;2022-11-20T15:41:00;12.00;99.90
68387;DHT22;55338;43.062;25.624;2022-11-20T15:43:25;12.00;99.90
68387;DHT22;55338;43.062;25.624;2022-11-20T15:45:55;12.00;99.90
68387;DHT22;55338;43.062;25.624;2022-11-20T15:48:24;12.10;99.90
68387;DHT22;55338;43.062;25.624;2022-11-20T15:53:20;12.10;99.90
68387;DHT22;55338;43.062;25.624;2022-11-20T15:55:46;12.10;99.90
68387;DHT22;55338;43.062;25.624;2022-11-20T15:58:12;12.10;99.90
68387;DHT22;55338;43.062;25.624;2022-11-20T16:00:37;12.10;99.90
68387;DHT22;55338;43.062;25.624;2022-11-20T16:03:03;12.00;99.90
68387;DHT22;55338;43.062;25.624;2022-11-20T16:05:29;12.10;99.90
68387;DHT22;55338;43.062;25.624;2022-11-20T16:07:55;12.10;99.90
68387;DHT22;55338;43.062;25.624;2022-11-20T16:10:21;12.10;99.90
68387;DHT22;55338;43.062;25.624;2022-11-20T16:12:47;12.00;99.90
68387;DHT22;55338;43.062;25.624;2022-11-20T16:15:31;12.10;99.90
68387;DHT22;55338;43.062;25.624;2022-11-20T16:18:15;12.10;99.90
68387;DHT22;55338;43.062;25.624;2022-11-20T16:20:41;12.10;99.90
68387;DHT22;55338;43.062;25.624;2022-11-20T16:23:07;12.10;99.90
68387;DHT22;55338;43.062;25.624;2022-11-20T16:25:33;12.10;99.90
68387;DHT22;55338;43.062;25.624;2022-11-20T16:27:59;12.20;99.90
68387;DHT22;55338;43.062;25.624;2022-11-20T16:30:25;12.20;99.90
68387;DHT22;55338;43.062;25.624;2022-11-20T16:32:50;12.20;99.90
68387;DHT22;55338;43.062;25.624;2022-11-20T16:35:16;12.20;99.90
68387;DHT22;55338;43.062;25.624;2022-11-20T16:37:42;12.20;99.90
68387;DHT22;55338;43.062;25.624;2022-11-20T16:40:09;12.30;99.90
68387;DHT22;55338;43.062;25.624;2022-11-20T16:42:36;12.30;99.90
68387;DHT22;55338;43.062;25.624;2022-11-20T16:45:03;12.30;99.90
68387;DHT22;55338;43.062;25.624;2022-11-20T16:47:34;12.30;99.90
68387;DHT22;55338;43.062;25.624;2022-11-20T16:50:00;12.40;99.90
68387;DHT22;55338;43.062;25.624;2022-11-20T16:52:27;12.40;99.90
68387;DHT22;55338;43.062;25.624;2022-11-20T16:54:53;12.40;99.90
68387;DHT22;55338;43.062;25.624;2022-11-20T16:57:18;12.40;99.90
68387;DHT22;55338;43.062;25.624;2022-11-20T16:59:44;12.30;99.90
68387;DHT22;55338;43.062;25.624;2022-11-20T17:02:10;12.30;99.90
68387;DHT22;55338;43.062;25.624;2022-11-20T17:04:36;12.30;99.90
68387;DHT22;55338;43.062;25.624;2022-11-20T17:07:02;12.30;99.90
68387;DHT22;55338;43.062;25.624;2022-11-20T17:09:28;12.30;99.90
68387;DHT22;55338;43.062;25.624;2022-11-20T17:11:54;12.30;99.90
68387;DHT22;55338;43.062;25.624;2022-11-20T17:14:20;12.20;99.90
68387;DHT22;55338;43.062;25.624;2022-11-20T17:16:45;12.20;99.90
68387;DHT22;55338;43.062;25.624;2022-11-20T17:19:12;12.30;99.90
68387;DHT22;55338;43.062;25.624;2022-11-20T17:21:38;12.30;99.90
68387;DHT22;55338;43.062;25.624;2022-11-20T17:24:10;12.30;99.90
68387;DHT22;55338;43.062;25.624;2022-11-20T17:26:38;12.20;99.90
68387;DHT22;55338;43.062;25.624;2022-11-20T17:29:06;12.20;99.90